Airfield :
LOGIN :

Register | Disclaimer

   EN    FR    IT 

 










Legend :    VFR   Marginal VFR   IFR   Intensive IFR   Very Intensive IFR
Visi :
Ceiling :
>= 8 km
>= 3000ft
5 to 8 km
1000 to 3000 ft
1500m to 5 km
500 to 1000 ft
800 to 1500m
200 to 500 ft
< 800m
< 200 ft
Symbols :   Thunderstorms  Fog  Heavy snow  Heavy precipitations  Wind > 20 kt
SIGMETs :     Misc.  Thunderstorms  Icing  Turbulence  Mountain Waves  Volcanic Ashes






- Airport Elevation : 74 ft
- IATA code : MRS


LFML - Marseille / Marignane

CURRENT METAR :
  • 280730Z AUTO VRB01KT CAVOK 09/08 Q1015 BECMG 26012KT

EXPIRED METARs :
  • 280700Z AUTO 20003KT 9999 FEW009 OVC062 09/08 Q1015 TEMPO BKN010 BECMG 26012KT
  • 280630Z AUTO 17001KT 9999 BKN010 OVC066 09/08 Q1014 BECMG 26012KT NSC
  • 280600Z AUTO VRB02KT 9999 OVC010 09/08 Q1014 NOSIG
  • 280530Z AUTO 10003KT 040V140 9999 BKN010 OVC068 09/08 Q1014 NOSIG
  • 280500Z AUTO 07003KT 9999 BKN014 BKN072 08/07 Q1014 NOSIG

TAF AMD TAF LFML
Valid from the 28 at 04:00 until the 29 at 09:00 UTC


280421Z 2804/2909 VRB04KT 9999 SCT040 TX14/2813Z TN06/2806Z
TEMPO 2804/2808 BKN010
BECMG 2808/2811 26012KT CAVOK
TEMPO 2812/2903 26015G25KT
ATIS : +33 4 42 31 15 15



MET'MAP, your aeronautical weather chart ! - Copyright ORBIFLY December 2007 - Disclaimer

ORBIFLY MET'MAP TEAM :

Programming & Development : Alexandra Zaïnal
Concept & original design : Baudouin d'Aumeries
Assistance for programming : Marc-Olivier Méhu
Technical & hardware support : Manuel Goepfert

Contact : metmap@orbifly.com




SOURCES & CREDITS :

   NOAA